Time;durP1;ratioP1;P1;durP2;ratioP2;P2;SDS_P1;SDS_P2;PMS_P1;PMS_P2;Temp;Humidity;BMP_temperature;BMP_pressure;BME280_temperature;BME280_humidity;BME280_pressure;Samples;Min_cycle;Max_cycle;Signal;HPM_P1;HPM_P2
2021/05/19 00:00:51;;;;;;;8.27;7.20;;;11.80;99.90;;;;;;5103245;28;20499;-68
2021/05/19 00:03:17;;;;;;;9.00;6.57;;;11.80;99.90;;;;;;5104084;28;20550;-67
2021/05/19 00:05:44;;;;;;;9.40;6.27;;;11.70;99.90;;;;;;5107060;28;20450;-68
2021/05/19 00:08:10;;;;;;;11.40;7.80;;;11.70;99.90;;;;;;5107634;28;20453;-68
2021/05/19 00:10:37;;;;;;;11.87;7.60;;;11.60;99.90;;;;;;5105212;28;20465;-68
2021/05/19 00:13:05;;;;;;;9.30;7.07;;;11.60;99.90;;;;;;5104258;28;20461;-68
2021/05/19 00:15:34;;;;;;;10.20;7.90;;;11.60;99.90;;;;;;5102902;28;20453;-67
2021/05/19 00:18:05;;;;;;;9.87;7.50;;;11.60;99.90;;;;;;5102887;28;20461;-68
2021/05/19 00:20:32;;;;;;;11.87;7.57;;;11.50;99.90;;;;;;5103007;28;20944;-68
2021/05/19 00:23:00;;;;;;;9.70;6.67;;;11.50;99.90;;;;;;5103610;28;20466;-68
2021/05/19 00:25:27;;;;;;;10.80;7.80;;;11.50;99.90;;;;;;5103547;28;20453;-68
2021/05/19 00:27:54;;;;;;;8.93;8.00;;;11.40;99.90;;;;;;5105210;28;20540;-66
2021/05/19 00:30:22;;;;;;;8.97;7.80;;;11.40;99.90;;;;;;5104216;28;20454;-67
2021/05/19 00:32:49;;;;;;;13.57;7.73;;;11.30;99.90;;;;;;5106245;28;20478;-68
2021/05/19 00:35:15;;;;;;;10.40;7.93;;;11.30;99.90;;;;;;5102582;28;20450;-66
2021/05/19 00:37:44;;;;;;;10.90;8.07;;;11.30;99.90;;;;;;5097456;28;20454;-67
2021/05/19 00:40:12;;;;;;;12.57;8.17;;;11.30;99.90;;;;;;5098279;28;20504;-67
2021/05/19 00:42:41;;;;;;;11.27;8.67;;;11.20;99.90;;;;;;5098392;28;20457;-67
2021/05/19 00:45:09;;;;;;;13.70;7.63;;;11.20;99.90;;;;;;5096603;28;20548;-66
2021/05/19 00:47:37;;;;;;;8.73;7.83;;;11.20;99.90;;;;;;5096563;28;20479;-67
2021/05/19 00:50:07;;;;;;;10.80;8.47;;;11.20;99.90;;;;;;5097021;28;20445;-67
2021/05/19 00:52:34;;;;;;;8.97;6.90;;;11.20;99.90;;;;;;5096689;28;20449;-67
2021/05/19 00:55:00;;;;;;;10.63;7.70;;;11.10;99.90;;;;;;5098178;28;20457;-69
2021/05/19 00:57:29;;;;;;;10.37;8.30;;;11.10;99.90;;;;;;5098911;28;20453;-71
2021/05/19 00:59:56;;;;;;;10.80;7.83;;;11.10;99.90;;;;;;5098456;28;20469;-70
2021/05/19 01:02:22;;;;;;;10.17;7.90;;;11.20;99.90;;;;;;5098721;28;20453;-69
2021/05/19 01:04:49;;;;;;;8.00;7.10;;;11.20;99.90;;;;;;5099225;28;20508;-70
2021/05/19 01:07:22;;;;;;;15.40;8.57;;;11.20;99.90;;;;;;5099595;28;20461;-70
2021/05/19 01:09:48;;;;;;;11.10;6.63;;;11.20;99.90;;;;;;5099442;28;20447;-70
2021/05/19 01:12:16;;;;;;;9.40;7.40;;;11.20;99.90;;;;;;5100318;28;20532;-70
2021/05/19 01:14:44;;;;;;;9.23;7.70;;;11.20;99.90;;;;;;5100396;28;20453;-69
2021/05/19 01:17:11;;;;;;;8.70;7.23;;;11.30;99.90;;;;;;5100320;28;20465;-71
2021/05/19 01:19:39;;;;;;;8.23;7.17;;;11.30;99.90;;;;;;5099522;28;20495;-71
2021/05/19 01:22:08;;;;;;;7.60;6.87;;;11.30;99.90;;;;;;5099265;28;20460;-70
2021/05/19 01:24:35;;;;;;;11.07;7.20;;;11.30;99.90;;;;;;5097568;28;20472;-70
2021/05/19 01:27:01;;;;;;;11.70;7.47;;;11.40;99.90;;;;;;5101231;28;20453;-71
2021/05/19 01:29:28;;;;;;;10.13;8.20;;;11.40;99.90;;;;;;5105044;28;20769;-70
2021/05/19 01:31:54;;;;;;;14.17;7.10;;;11.40;99.90;;;;;;5101362;28;20491;-71
2021/05/19 01:34:20;;;;;;;8.00;6.80;;;11.40;99.90;;;;;;5102214;28;20460;-71
2021/05/19 01:36:47;;;;;;;8.20;6.70;;;11.40;99.90;;;;;;5101962;28;20449;-70
2021/05/19 01:39:14;;;;;;;7.57;6.77;;;11.40;99.90;;;;;;5101395;28;20453;-70
2021/05/19 01:41:41;;;;;;;15.17;6.60;;;11.40;99.90;;;;;;5101454;28;20449;-70
2021/05/19 01:44:12;;;;;;;8.60;7.70;;;11.40;99.90;;;;;;5101300;28;20553;-71
2021/05/19 01:46:38;;;;;;;8.60;7.13;;;11.30;99.90;;;;;;5101370;28;20449;-70
2021/05/19 01:49:06;;;;;;;8.10;6.23;;;11.30;99.90;;;;;;5099622;28;20456;-69
2021/05/19 01:51:33;;;;;;;9.60;6.40;;;11.30;99.90;;;;;;5100544;28;20518;-69
2021/05/19 01:53:59;;;;;;;7.43;6.73;;;11.30;99.90;;;;;;5101614;28;20457;-70
2021/05/19 01:56:26;;;;;;;7.87;6.40;;;11.40;99.90;;;;;;5101808;28;20457;-70
2021/05/19 01:58:53;;;;;;;7.37;6.50;;;11.40;99.90;;;;;;5101536;28;20464;-70
2021/05/19 02:01:19;;;;;;;10.37;6.57;;;11.40;99.90;;;;;;5101686;28;20542;-70
2021/05/19 02:03:45;;;;;;;8.77;6.60;;;11.40;99.90;;;;;;5102177;28;20449;-69
2021/05/19 02:06:12;;;;;;;9.27;6.70;;;11.40;99.90;;;;;;5101673;28;20465;-70
2021/05/19 02:08:38;;;;;;;9.20;6.50;;;11.50;99.90;;;;;;5100670;28;20483;-70
2021/05/19 02:11:05;;;;;;;6.73;5.80;;;11.50;99.90;;;;;;5104215;28;20463;-69
2021/05/19 02:13:32;;;;;;;6.50;5.90;;;11.50;99.90;;;;;;5102025;28;20765;-69
2021/05/19 02:15:58;;;;;;;9.70;6.30;;;11.50;99.90;;;;;;5101930;28;20468;-69
2021/05/19 02:18:26;;;;;;;7.20;6.40;;;11.50;99.90;;;;;;5100665;28;20797;-70
2021/05/19 02:20:52;;;;;;;7.03;5.73;;;11.50;99.90;;;;;;5100939;28;20481;-70
2021/05/19 02:23:19;;;;;;;7.93;6.40;;;11.50;99.90;;;;;;5102290;28;20468;-70
2021/05/19 02:25:45;;;;;;;6.80;6.13;;;11.40;99.90;;;;;;5101076;28;20453;-70
2021/05/19 02:28:11;;;;;;;6.10;5.40;;;11.40;99.90;;;;;;5100977;28;20916;-70
2021/05/19 02:30:38;;;;;;;9.90;5.90;;;11.40;99.90;;;;;;5101041;28;20461;-70
2021/05/19 02:33:12;;;;;;;5.93;5.33;;;11.40;99.90;;;;;;5102899;28;20546;-70
2021/05/19 02:35:40;;;;;;;7.23;5.93;;;11.30;99.90;;;;;;5106229;28;20775;-70
2021/05/19 02:38:06;;;;;;;6.40;5.80;;;11.30;99.90;;;;;;5100881;28;20453;-70
2021/05/19 02:40:32;;;;;;;8.63;5.93;;;11.30;99.90;;;;;;5099608;28;20470;-70
2021/05/19 02:42:59;;;;;;;8.87;5.83;;;11.40;99.90;;;;;;5100520;28;20457;-70
2021/05/19 02:45:25;;;;;;;7.90;6.10;;;11.40;99.90;;;;;;5100518;28;20461;-70
2021/05/19 02:47:52;;;;;;;8.43;6.50;;;11.40;99.90;;;;;;5100578;28;20469;-69
2021/05/19 02:50:19;;;;;;;7.07;6.00;;;11.40;99.90;;;;;;5100218;28;20515;-70
2021/05/19 02:52:45;;;;;;;6.83;5.77;;;11.40;99.90;;;;;;5100601;28;20492;-70
2021/05/19 02:55:12;;;;;;;9.43;6.23;;;11.40;99.90;;;;;;5100265;28;20575;-69
2021/05/19 02:57:39;;;;;;;7.87;5.90;;;11.40;99.90;;;;;;5099901;28;20453;-70
2021/05/19 03:00:06;;;;;;;6.70;5.73;;;11.40;99.90;;;;;;5099632;28;20512;-69
2021/05/19 03:02:33;;;;;;;7.60;6.10;;;11.40;99.90;;;;;;5099991;28;20480;-70
2021/05/19 03:05:00;;;;;;;6.10;5.37;;;11.40;99.90;;;;;;5099427;28;20457;-70
2021/05/19 03:07:29;;;;;;;9.53;6.93;;;11.40;99.90;;;;;;5100465;28;20461;-70
2021/05/19 03:09:55;;;;;;;8.63;6.50;;;11.50;99.90;;;;;;5099594;28;20449;-71
2021/05/19 03:12:21;;;;;;;12.03;7.17;;;11.50;99.90;;;;;;5102774;28;20461;-71
2021/05/19 03:14:48;;;;;;;7.30;6.20;;;11.50;99.90;;;;;;5099222;28;20472;-71
2021/05/19 03:17:14;;;;;;;10.80;7.50;;;11.50;99.90;;;;;;5099957;28;20462;-71
2021/05/19 03:19:40;;;;;;;10.90;6.53;;;11.50;99.90;;;;;;5101099;28;20473;-71
2021/05/19 03:22:07;;;;;;;10.10;6.53;;;11.60;99.90;;;;;;5099996;28;20483;-71
2021/05/19 03:24:35;;;;;;;8.47;7.27;;;11.60;99.90;;;;;;5099095;28;20468;-71
2021/05/19 03:27:04;;;;;;;8.60;6.70;;;11.60;99.90;;;;;;5100246;28;20457;-71
2021/05/19 03:29:30;;;;;;;10.20;6.67;;;11.60;99.90;;;;;;5097751;28;20453;-71
2021/05/19 03:31:56;;;;;;;9.77;6.43;;;11.60;99.90;;;;;;5096137;28;20481;-71
2021/05/19 03:34:22;;;;;;;10.00;7.40;;;11.60;99.90;;;;;;5096248;28;20442;-71
2021/05/19 03:36:48;;;;;;;9.10;6.63;;;11.60;99.90;;;;;;5096317;28;20454;-71
2021/05/19 03:39:16;;;;;;;8.43;7.53;;;11.60;99.90;;;;;;5096466;28;20453;-71
2021/05/19 03:41:42;;;;;;;10.23;6.67;;;11.70;99.90;;;;;;5096654;28;20690;-71
2021/05/19 03:44:09;;;;;;;7.20;6.50;;;11.70;99.90;;;;;;5096659;28;20457;-71
2021/05/19 03:46:36;;;;;;;9.00;6.63;;;11.70;99.90;;;;;;5096179;28;20460;-71
2021/05/19 03:49:04;;;;;;;7.50;6.33;;;11.70;99.90;;;;;;5097599;28;20800;-71
2021/05/19 03:51:31;;;;;;;6.53;5.90;;;11.60;99.90;;;;;;5097047;28;20453;-71
2021/05/19 03:53:57;;;;;;;7.17;5.80;;;11.60;99.90;;;;;;5097724;28;20463;-71
2021/05/19 03:56:25;;;;;;;8.07;5.70;;;11.60;99.90;;;;;;5095867;28;20466;-69
2021/05/19 03:58:51;;;;;;;7.33;6.50;;;11.50;99.90;;;;;;5096458;28;20468;-69
2021/05/19 04:01:18;;;;;;;6.87;6.17;;;11.50;99.90;;;;;;5096030;28;20473;-69
2021/05/19 04:03:44;;;;;;;7.93;6.80;;;11.50;99.90;;;;;;5096157;28;20454;-71
2021/05/19 04:06:11;;;;;;;11.37;7.10;;;11.50;99.90;;;;;;5095500;28;20772;-71
2021/05/19 04:08:39;;;;;;;8.33;6.90;;;11.60;99.90;;;;;;5095893;28;20510;-70
2021/05/19 04:11:06;;;;;;;10.30;6.90;;;11.60;99.90;;;;;;5096182;28;20810;-71
2021/05/19 04:13:34;;;;;;;9.27;7.30;;;11.60;99.90;;;;;;5095730;28;20485;-69
2021/05/19 04:16:00;;;;;;;8.03;7.10;;;11.70;99.90;;;;;;5095713;28;20479;-69
2021/05/19 04:18:26;;;;;;;8.20;6.60;;;11.70;99.90;;;;;;5096636;28;20773;-69
2021/05/19 04:20:53;;;;;;;9.47;7.40;;;11.80;99.90;;;;;;5095879;28;20481;-71
2021/05/19 04:23:21;;;;;;;9.70;7.00;;;11.80;99.90;;;;;;5099580;28;20457;-70
2021/05/19 04:25:47;;;;;;;9.30;7.40;;;11.90;99.90;;;;;;5098200;28;20477;-70
2021/05/19 04:28:14;;;;;;;7.63;6.83;;;11.90;99.90;;;;;;5095274;28;20457;-71
2021/05/19 04:30:41;;;;;;;10.37;7.80;;;11.90;99.90;;;;;;5095588;28;20463;-70
2021/05/19 04:33:07;;;;;;;8.70;7.20;;;11.90;99.90;;;;;;5095152;28;20816;-70
2021/05/19 04:35:34;;;;;;;10.50;8.50;;;11.90;99.90;;;;;;5095795;28;20469;-70
2021/05/19 04:38:01;;;;;;;8.50;7.50;;;11.90;99.90;;;;;;5095515;28;20457;-70
2021/05/19 04:40:28;;;;;;;7.70;6.90;;;11.90;99.90;;;;;;5097672;28;20587;-70
2021/05/19 04:42:55;;;;;;;8.50;7.60;;;11.90;99.90;;;;;;5104694;28;20461;-71
2021/05/19 04:45:22;;;;;;;7.53;6.67;;;11.90;99.90;;;;;;5105223;28;20476;-70
2021/05/19 04:47:49;;;;;;;9.20;7.63;;;11.80;99.90;;;;;;5106086;28;20457;-70
2021/05/19 04:50:17;;;;;;;9.00;7.60;;;11.80;99.90;;;;;;5105174;28;20457;-71
2021/05/19 04:52:43;;;;;;;9.27;8.33;;;11.70;99.90;;;;;;5106601;28;20510;-70
2021/05/19 04:55:10;;;;;;;7.73;6.90;;;11.70;99.90;;;;;;5106081;28;20521;-71
2021/05/19 04:57:37;;;;;;;11.03;7.90;;;11.70;99.90;;;;;;5102618;28;20461;-71
2021/05/19 05:00:06;;;;;;;10.00;8.63;;;11.70;99.90;;;;;;5096175;28;20472;-71
2021/05/19 05:02:32;;;;;;;12.63;8.40;;;11.70;99.90;;;;;;5097362;28;20522;-72
2021/05/19 05:05:00;;;;;;;10.33;8.80;;;11.60;99.90;;;;;;5100112;28;20452;-70
2021/05/19 05:07:26;;;;;;;11.37;8.07;;;11.60;99.90;;;;;;5100707;28;20456;-70
2021/05/19 05:09:55;;;;;;;11.17;8.57;;;11.60;99.90;;;;;;5100555;28;20535;-70
2021/05/19 05:12:22;;;;;;;10.47;7.50;;;11.60;99.90;;;;;;5099911;28;20468;-69
2021/05/19 05:14:48;;;;;;;10.60;8.07;;;11.60;99.90;;;;;;5100489;28;20471;-70
2021/05/19 05:17:14;;;;;;;13.00;7.80;;;11.60;99.90;;;;;;5100146;28;20479;-71
2021/05/19 05:19:41;;;;;;;10.37;7.70;;;11.60;99.90;;;;;;5100438;28;20453;-70
2021/05/19 05:22:08;;;;;;;13.40;8.33;;;11.70;99.90;;;;;;5101258;28;20457;-70
2021/05/19 05:24:34;;;;;;;9.37;7.67;;;11.70;99.90;;;;;;5100505;28;20457;-70
2021/05/19 05:27:00;;;;;;;9.40;7.80;;;11.70;99.90;;;;;;5102291;28;20469;-70
2021/05/19 05:29:26;;;;;;;8.77;7.80;;;11.70;99.90;;;;;;5100568;28;20457;-70
2021/05/19 05:31:53;;;;;;;12.80;8.00;;;11.80;99.90;;;;;;5100355;28;20749;-70
2021/05/19 05:34:19;;;;;;;9.77;7.77;;;11.80;99.90;;;;;;5099933;28;20467;-71
2021/05/19 05:36:45;;;;;;;11.67;8.37;;;11.90;99.90;;;;;;5099943;28;20461;-71
2021/05/19 05:39:12;;;;;;;8.33;6.97;;;11.90;99.90;;;;;;5099430;28;20519;-70
2021/05/19 05:41:38;;;;;;;7.50;6.73;;;11.90;99.90;;;;;;5099388;28;20538;-71
2021/05/19 05:44:05;;;;;;;9.80;8.03;;;11.90;99.90;;;;;;5100432;28;20453;-70
2021/05/19 05:46:31;;;;;;;8.23;6.60;;;12.00;99.90;;;;;;5108738;28;20464;-71
2021/05/19 05:48:59;;;;;;;9.30;6.70;;;12.00;99.90;;;;;;5098692;28;20522;-70
2021/05/19 05:51:28;;;;;;;8.70;6.67;;;12.10;99.90;;;;;;5098218;28;20453;-72
2021/05/19 05:53:54;;;;;;;7.63;6.07;;;12.10;99.90;;;;;;5099002;28;20483;-73
2021/05/19 05:56:22;;;;;;;7.53;6.80;;;12.20;99.90;;;;;;5098377;28;20457;-71
2021/05/19 05:58:48;;;;;;;7.10;6.40;;;12.20;99.90;;;;;;5098778;28;20463;-73
2021/05/19 06:01:15;;;;;;;8.80;6.20;;;12.30;99.90;;;;;;5097864;28;20508;-75
2021/05/19 06:03:43;;;;;;;12.30;6.07;;;12.30;99.90;;;;;;5097790;28;20970;-70
2021/05/19 06:06:10;;;;;;;12.83;7.33;;;12.40;99.90;;;;;;5099301;28;20468;-71
2021/05/19 06:08:36;;;;;;;7.90;6.03;;;12.40;99.90;;;;;;5098567;28;20483;-71
2021/05/19 06:11:05;;;;;;;8.27;6.80;;;12.40;99.90;;;;;;5098593;28;20457;-70
2021/05/19 06:13:32;;;;;;;8.07;7.20;;;12.50;99.90;;;;;;5097227;28;20530;-71
2021/05/19 06:15:58;;;;;;;9.07;6.57;;;12.50;99.90;;;;;;5097898;28;20457;-70
2021/05/19 06:18:25;;;;;;;10.27;6.10;;;12.60;99.90;;;;;;5098512;28;20457;-70
2021/05/19 06:20:51;;;;;;;6.43;5.83;;;12.60;99.90;;;;;;5097856;28;20828;-71
2021/05/19 06:23:17;;;;;;;7.93;6.00;;;12.70;99.90;;;;;;5098050;28;20453;-70
2021/05/19 06:25:45;;;;;;;6.50;5.47;;;12.70;99.90;;;;;;5097178;28;20454;-70
2021/05/19 06:28:11;;;;;;;6.73;5.50;;;12.80;99.90;;;;;;5097307;28;20889;-70
2021/05/19 06:30:38;;;;;;;8.93;6.90;;;12.80;99.90;;;;;;5097791;28;20475;-71
2021/05/19 06:33:05;;;;;;;7.80;6.10;;;12.80;99.90;;;;;;5097518;28;20492;-71
2021/05/19 06:35:31;;;;;;;7.00;5.90;;;12.90;99.90;;;;;;5103982;28;20453;-71
2021/05/19 06:37:57;;;;;;;5.07;4.53;;;12.90;99.90;;;;;;5098225;28;20461;-71
2021/05/19 06:40:25;;;;;;;5.40;4.90;;;12.90;99.90;;;;;;5097528;28;20481;-71
2021/05/19 06:42:51;;;;;;;7.17;5.23;;;13.00;99.90;;;;;;5097575;28;20457;-71
2021/05/19 06:45:17;;;;;;;7.80;5.30;;;13.00;99.90;;;;;;5097227;28;20450;-71
2021/05/19 06:47:44;;;;;;;6.10;5.50;;;13.00;99.90;;;;;;5098123;28;20478;-71
2021/05/19 06:50:11;;;;;;;7.80;5.20;;;13.00;99.90;;;;;;5099804;28;20461;-71
2021/05/19 06:52:38;;;;;;;5.37;4.87;;;13.10;99.90;;;;;;5097657;28;20510;-71
2021/05/19 06:55:06;;;;;;;5.07;4.57;;;13.10;99.90;;;;;;5097168;28;20475;-71
2021/05/19 06:57:34;;;;;;;5.10;4.40;;;13.10;99.90;;;;;;5097745;28;20453;-70
2021/05/19 07:00:01;;;;;;;5.83;4.83;;;13.20;99.90;;;;;;5097997;28;20484;-71
2021/05/19 07:02:28;;;;;;;6.53;4.50;;;13.20;99.90;;;;;;5098083;28;20735;-71
2021/05/19 07:04:55;;;;;;;5.20;4.70;;;13.30;99.90;;;;;;5097415;28;20458;-70
2021/05/19 07:07:21;;;;;;;4.90;4.40;;;13.30;99.90;;;;;;5096760;28;20457;-71
2021/05/19 07:09:47;;;;;;;4.33;3.57;;;13.30;99.90;;;;;;5097674;28;20457;-70
2021/05/19 07:12:14;;;;;;;8.37;3.80;;;13.40;99.90;;;;;;5096852;28;20772;-71
2021/05/19 07:14:46;;;;;;;4.03;3.70;;;13.50;99.90;;;;;;5097515;28;20468;-70
2021/05/19 07:17:13;;;;;;;4.50;4.10;;;13.50;99.90;;;;;;5096529;28;20441;-70
2021/05/19 07:19:39;;;;;;;4.63;4.20;;;13.60;99.90;;;;;;5096732;28;20514;-71
2021/05/19 07:22:06;;;;;;;4.17;3.77;;;13.70;99.90;;;;;;5097111;28;20477;-70
2021/05/19 07:24:32;;;;;;;4.60;3.50;;;13.70;99.90;;;;;;5096443;28;20454;-71
2021/05/19 07:26:58;;;;;;;4.83;4.23;;;13.70;99.90;;;;;;5096498;28;20464;-70
2021/05/19 07:29:25;;;;;;;5.20;4.70;;;13.60;99.90;;;;;;5096102;28;20940;-71
2021/05/19 07:31:51;;;;;;;4.90;4.30;;;13.60;99.90;;;;;;5096017;28;21034;-71
2021/05/19 07:34:17;;;;;;;4.33;3.93;;;13.60;99.90;;;;;;5096191;28;20481;-70
2021/05/19 07:36:45;;;;;;;4.23;3.73;;;13.50;99.90;;;;;;5096305;28;20518;-71
2021/05/19 07:39:13;;;;;;;3.93;3.37;;;13.50;99.90;;;;;;5096330;28;20453;-70
2021/05/19 07:41:40;;;;;;;4.87;3.80;;;13.60;99.90;;;;;;5096674;28;20477;-70
2021/05/19 07:44:07;;;;;;;7.90;3.87;;;13.60;99.90;;;;;;5097608;28;20453;-71
2021/05/19 07:46:34;;;;;;;10.17;3.43;;;13.80;99.90;;;;;;5095964;28;20559;-70
2021/05/19 07:49:01;;;;;;;3.77;3.27;;;13.90;99.90;;;;;;5095940;28;20464;-72
2021/05/19 07:51:27;;;;;;;4.77;3.80;;;13.90;99.90;;;;;;5096203;28;20558;-71
2021/05/19 07:53:54;;;;;;;4.00;3.60;;;13.90;99.90;;;;;;5096424;28;20464;-71
2021/05/19 07:56:30;;;;;;;3.37;2.90;;;13.80;99.90;;;;;;5095929;28;20544;-70
2021/05/19 07:59:01;;;;;;;3.83;3.53;;;13.90;99.90;;;;;;5095445;28;20438;-71
2021/05/19 08:01:42;;;;;;;3.03;2.80;;;13.90;99.90;;;;;;5096043;28;20476;-71
2021/05/19 08:04:10;;;;;;;3.43;2.90;;;14.00;99.90;;;;;;5095616;28;20446;-70
2021/05/19 08:06:36;;;;;;;2.80;2.60;;;14.00;99.90;;;;;;5095815;28;20476;-71
2021/05/19 08:09:04;;;;;;;2.53;2.23;;;14.10;99.90;;;;;;5095675;28;20563;-71
2021/05/19 08:11:32;;;;;;;2.90;2.23;;;14.20;99.90;;;;;;5096107;28;20464;-71
2021/05/19 08:13:58;;;;;;;2.73;2.50;;;14.30;99.90;;;;;;5095381;28;20551;-70
2021/05/19 08:16:28;;;;;;;3.30;2.90;;;14.40;99.90;;;;;;5095805;28;20476;-70
2021/05/19 08:18:54;;;;;;;2.40;2.20;;;14.50;99.90;;;;;;5095861;28;20453;-70
2021/05/19 08:21:20;;;;;;;3.07;2.00;;;14.50;99.90;;;;;;5095853;28;20575;-70
2021/05/19 08:23:46;;;;;;;2.13;1.93;;;14.50;99.90;;;;;;5095450;28;20886;-72
2021/05/19 08:26:13;;;;;;;2.97;2.27;;;14.50;99.90;;;;;;5096061;28;20476;-71
2021/05/19 08:28:40;;;;;;;2.60;2.40;;;14.60;99.90;;;;;;5096006;28;20469;-72
2021/05/19 08:31:10;;;;;;;2.33;2.13;;;14.60;99.90;;;;;;5096010;28;20453;-71
2021/05/19 08:33:36;;;;;;;2.70;2.20;;;14.70;99.90;;;;;;5095688;28;20483;-70
2021/05/19 08:36:03;;;;;;;2.67;2.47;;;14.80;99.90;;;;;;5095856;28;20461;-71
2021/05/19 08:38:29;;;;;;;3.47;3.03;;;14.90;99.90;;;;;;5095836;28;20913;-71
2021/05/19 08:40:55;;;;;;;3.13;2.50;;;15.10;99.90;;;;;;5095638;28;20605;-70
2021/05/19 08:43:21;;;;;;;3.63;2.87;;;15.30;99.90;;;;;;5095508;28;20453;-71
2021/05/19 08:45:48;;;;;;;2.67;2.47;;;15.40;99.90;;;;;;5099552;28;20464;-71
2021/05/19 08:48:15;;;;;;;2.10;2.00;;;15.50;99.90;;;;;;5096083;28;20475;-70
2021/05/19 08:50:41;;;;;;;3.20;2.67;;;15.40;99.90;;;;;;5096603;28;20453;-71
2021/05/19 08:53:09;;;;;;;3.43;2.67;;;15.40;99.90;;;;;;5098385;28;20530;-72
2021/05/19 08:55:37;;;;;;;2.43;2.23;;;15.40;99.90;;;;;;5095692;28;20514;-71
2021/05/19 08:58:03;;;;;;;2.73;2.43;;;15.30;99.90;;;;;;5095909;28;20544;-71
2021/05/19 09:00:32;;;;;;;2.60;2.40;;;15.20;99.90;;;;;;5095802;28;20473;-72
2021/05/19 09:03:07;;;;;;;4.00;2.80;;;15.20;99.90;;;;;;5095142;28;20453;-70
2021/05/19 09:05:35;;;;;;;2.20;2.00;;;15.10;99.90;;;;;;5094809;28;20551;-70
2021/05/19 09:08:05;;;;;;;2.27;2.03;;;15.00;99.90;;;;;;5094802;28;20744;-71
2021/05/19 09:10:32;;;;;;;2.03;1.83;;;14.80;99.90;;;;;;5094431;28;20452;-71
2021/05/19 09:12:58;;;;;;;2.10;1.90;;;14.80;99.90;;;;;;5098249;28;20510;-71
2021/05/19 09:15:25;;;;;;;2.27;2.07;;;14.70;99.90;;;;;;5097523;28;20503;-71
2021/05/19 09:18:00;;;;;;;2.50;1.60;;;14.70;99.90;;;;;;5097840;28;20453;-70
2021/05/19 09:20:30;;;;;;;2.13;1.93;;;14.70;99.90;;;;;;5104746;28;20468;-70
2021/05/19 09:23:05;;;;;;;2.40;1.93;;;14.70;99.90;;;;;;5105832;28;20551;-69
2021/05/19 09:25:34;;;;;;;2.53;2.27;;;14.80;99.90;;;;;;5100662;28;20472;-70
2021/05/19 09:28:04;;;;;;;1.80;1.70;;;14.80;99.90;;;;;;5098437;28;20921;-72
2021/05/19 09:30:36;;;;;;;2.10;1.80;;;14.80;99.90;;;;;;5100756;28;20445;-70
2021/05/19 09:33:13;;;;;;;1.63;1.53;;;14.90;90.70;;;;;;5100799;28;20486;-70
2021/05/19 09:35:40;;;;;;;2.60;1.70;;;15.00;53.40;;;;;;5100239;28;20449;-71
2021/05/19 09:38:28;;;;;;;2.83;2.10;;;15.10;39.70;;;;;;5099093;28;20464;-70
2021/05/19 09:41:14;;;;;;;1.60;1.50;;;15.20;45.10;;;;;;5095489;28;20480;-70
2021/05/19 09:43:40;;;;;;;3.20;1.63;;;15.40;44.00;;;;;;5096726;28;20482;-71
2021/05/19 09:46:13;;;;;;;2.60;2.00;;;15.50;48.70;;;;;;5095716;28;20472;-71
2021/05/19 09:48:40;;;;;;;3.97;1.97;;;15.60;57.40;;;;;;5097863;28;20450;-72
2021/05/19 09:51:08;;;;;;;8.10;1.93;;;15.70;60.20;;;;;;5100038;28;20570;-72
2021/05/19 09:53:35;;;;;;;2.57;1.90;;;15.80;53.90;;;;;;5099665;28;20453;-71
2021/05/19 09:56:06;;;;;;;2.10;1.90;;;15.80;35.40;;;;;;5099590;28;20479;-71
2021/05/19 09:58:36;;;;;;;2.43;1.90;;;15.80;40.20;;;;;;5098777;28;20789;-72
2021/05/19 10:01:06;;;;;;;2.20;1.53;;;15.90;26.90;;;;;;5098596;28;20481;-71
2021/05/19 10:03:34;;;;;;;1.50;1.40;;;16.00;26.00;;;;;;5099183;28;20516;-72
2021/05/19 10:06:09;;;;;;;1.50;1.37;;;16.10;22.60;;;;;;5098711;28;20925;-72
2021/05/19 10:08:36;;;;;;;2.10;1.90;;;16.00;21.10;;;;;;5099125;28;20477;-72
2021/05/19 10:11:04;;;;;;;2.17;1.97;;;15.80;20.50;;;;;;5099394;28;20467;-72
2021/05/19 10:13:31;;;;;;;2.70;2.50;;;15.70;21.40;;;;;;5099571;28;20537;-71
2021/05/19 10:15:59;;;;;;;2.37;1.90;;;15.60;27.90;;;;;;5099321;28;20804;-71
2021/05/19 10:18:28;;;;;;;2.23;2.03;;;15.70;13.40;;;;;;5099592;28;20518;-70
2021/05/19 10:20:56;;;;;;;3.90;1.97;;;15.80;16.00;;;;;;5098582;28;20628;-71
2021/05/19 10:23:31;;;;;;;2.23;1.80;;;15.90;17.60;;;;;;5098238;28;20461;-69
2021/05/19 10:26:10;;;;;;;2.83;1.83;;;16.00;16.90;;;;;;5098574;28;20460;-71
2021/05/19 10:28:41;;;;;;;2.70;1.77;;;16.00;22.70;;;;;;5098058;28;20968;-71
2021/05/19 10:31:28;;;;;;;1.57;1.47;;;15.90;2.20;;;;;;5099060;28;20562;-71
2021/05/19 10:33:56;;;;;;;1.90;1.80;;;15.90;1.00;;;;;;5097737;28;20437;-71
2021/05/19 10:36:46;;;;;;;2.20;2.00;;;16.00;9.30;;;;;;5098781;28;20526;-72
2021/05/19 10:39:23;;;;;;;1.67;1.57;;;16.10;4.90;;;;;;5098303;28;20445;-70
2021/05/19 10:41:55;;;;;;;2.43;1.87;;;16.30;8.90;;;;;;5098859;28;20630;-71
2021/05/19 10:44:28;;;;;;;2.03;1.70;;;16.40;5.10;;;;;;5098430;28;20477;-70
2021/05/19 10:47:03;;;;;;;2.07;1.97;;;16.40;4.90;;;;;;5098861;28;20488;-71
2021/05/19 10:50:01;;;;;;;2.17;1.97;;;16.40;5.80;;;;;;5099165;28;20540;-71
2021/05/19 10:52:37;;;;;;;4.03;1.90;;;16.50;9.60;;;;;;5098862;28;20472;-70
2021/05/19 10:57:51;;;;;;;1.70;1.60;;;16.50;4.80;;;;;;5098341;28;20425;-70
2021/05/19 11:00:21;;;;;;;2.07;1.87;;;16.60;1.00;;;;;;5096579;28;20449;-71
2021/05/19 11:03:25;;;;;;;2.07;1.70;;;16.50;1.00;;;;;;5098226;28;20509;-71
2021/05/19 11:06:13;;;;;;;1.80;1.47;;;16.40;1.00;;;;;;5096959;28;20447;-72
2021/05/19 11:08:40;;;;;;;3.43;1.40;;;16.50;1.00;;;;;;5097996;28;20464;-71
2021/05/19 11:11:22;;;;;;;1.77;1.60;;;16.70;1.00;;;;;;5097584;28;20461;-71
2021/05/19 11:14:18;;;;;;;2.53;2.33;;;17.10;1.00;;;;;;5097644;28;20445;-72
2021/05/19 11:16:50;;;;;;;5.33;3.00;;;17.20;1.00;;;;;;5097805;28;20488;-71
2021/05/19 11:19:30;;;;;;;3.33;2.00;;;17.20;1.00;;;;;;5097701;28;20445;-71
2021/05/19 11:22:02;;;;;;;1.90;1.63;;;17.30;1.00;;;;;;5097051;28;20487;-72
2021/05/19 11:24:28;;;;;;;4.17;1.30;;;17.60;1.00;;;;;;5097703;28;20441;-72
2021/05/19 11:26:55;;;;;;;2.20;1.30;;;18.10;1.00;;;;;;5097638;28;20492;-71
2021/05/19 11:29:22;;;;;;;1.50;1.20;;;18.90;1.00;;;;;;5098426;28;20457;-70
2021/05/19 11:31:50;;;;;;;1.67;1.27;;;19.90;1.00;;;;;;5097659;28;20488;-72
2021/05/19 11:34:21;;;;;;;1.20;0.97;;;20.80;1.00;;;;;;5097622;28;20489;-71
2021/05/19 11:36:49;;;;;;;1.70;1.27;;;21.00;1.00;;;;;;5097541;28;20468;-70
2021/05/19 11:39:24;;;;;;;1.50;1.00;;;21.00;1.00;;;;;;5096972;28;20473;-71
2021/05/19 11:41:52;;;;;;;1.50;1.23;;;21.10;1.00;;;;;;5096705;28;20476;-72
2021/05/19 11:44:33;;;;;;;1.60;1.20;;;21.30;1.00;;;;;;5096491;28;20790;-72
2021/05/19 11:47:02;;;;;;;1.40;1.10;;;21.70;1.00;;;;;;5097083;28;20454;-70
2021/05/19 11:49:28;;;;;;;2.20;1.60;;;21.90;1.00;;;;;;5096965;28;20453;-70
2021/05/19 11:51:55;;;;;;;4.27;1.10;;;21.80;1.00;;;;;;5096692;28;20453;-71
2021/05/19 11:54:22;;;;;;;1.30;1.10;;;21.90;1.00;;;;;;5097210;28;20461;-71
2021/05/19 11:56:49;;;;;;;1.50;1.30;;;22.00;1.00;;;;;;5097814;28;20468;-70
2021/05/19 11:59:21;;;;;;;1.43;1.03;;;21.50;1.00;;;;;;5098220;28;20463;-71
2021/05/19 12:01:59;;;;;;;1.83;1.37;;;21.00;1.00;;;;;;5098446;28;20551;-72
2021/05/19 12:04:27;;;;;;;1.87;1.77;;;21.00;1.00;;;;;;5096915;28;20446;-70
2021/05/19 12:06:54;;;;;;;2.00;1.40;;;21.20;1.00;;;;;;5097943;28;20473;-70
2021/05/19 12:09:22;;;;;;;1.50;1.20;;;20.90;1.00;;;;;;5099278;28;20454;-74
2021/05/19 12:11:49;;;;;;;1.40;1.20;;;20.90;1.00;;;;;;5099362;28;20525;-73
2021/05/19 12:14:19;;;;;;;1.83;1.53;;;20.60;1.00;;;;;;5102225;28;20521;-73
2021/05/19 12:16:47;;;;;;;1.70;1.60;;;20.20;1.00;;;;;;5101547;28;20461;-71
2021/05/19 12:19:16;;;;;;;1.83;1.37;;;20.20;1.00;;;;;;5099125;28;20464;-71
2021/05/19 12:21:45;;;;;;;1.40;1.23;;;20.10;1.00;;;;;;5097530;28;20856;-71
2021/05/19 12:24:13;;;;;;;1.30;1.20;;;19.80;1.00;;;;;;5097130;28;20449;-69
2021/05/19 12:26:40;;;;;;;1.13;1.00;;;20.00;1.00;;;;;;5097680;28;20457;-70
2021/05/19 12:29:30;;;;;;;1.60;1.47;;;20.60;1.00;;;;;;5098861;28;20484;-70
2021/05/19 12:32:08;;;;;;;5.30;1.70;;;21.40;1.00;;;;;;5096639;28;20561;-71
2021/05/19 12:34:35;;;;;;;1.60;1.50;;;21.80;1.00;;;;;;5096853;28;20870;-71
2021/05/19 12:37:02;;;;;;;1.30;1.00;;;22.00;1.00;;;;;;5097601;28;20469;-71
2021/05/19 12:39:30;;;;;;;1.50;1.40;;;22.40;1.00;;;;;;5097183;28;20453;-70
2021/05/19 12:41:57;;;;;;;2.60;1.67;;;22.50;1.00;;;;;;5096339;28;20557;-70
2021/05/19 12:44:31;;;;;;;1.20;0.90;;;22.20;1.00;;;;;;5097353;28;20461;-70
2021/05/19 12:46:59;;;;;;;1.37;1.27;;;21.50;1.00;;;;;;5097314;28;20532;-70
2021/05/19 12:49:26;;;;;;;2.13;1.60;;;20.80;1.00;;;;;;5096216;28;20457;-71
2021/05/19 12:51:55;;;;;;;1.77;1.00;;;20.80;1.00;;;;;;5098300;28;20453;-71
2021/05/19 12:54:33;;;;;;;1.77;1.20;;;21.00;1.00;;;;;;5098557;28;20559;-71
2021/05/19 12:57:01;;;;;;;1.60;1.40;;;21.00;1.00;;;;;;5096933;28;20882;-70